HP21 MPEJ-MPEJ
Flight info
| Callsign | HP21 |
|---|---|
| Flight time | 0h 7m |
| Altitude | 1100 |
| Route | LOCAL |
| Aircraft | DA40/L-SG/C |
Departure
| Time | 2026-04-21 18:59 |
|---|---|
| Airport | Enrique Adolfo Jimenez Airport (MPEJ) |
Arrival
| Time | 2026-04-21 19:06 |
|---|---|
| Airport | Enrique Adolfo Jimenez Airport (MPEJ) |
| Time | Latitude | Longitude | Altitude | Speed | Heading |
|---|---|---|---|---|---|
| 2026-04-21 17:10 | 9.36017 | -79.86491 | 35 ft | 0 kts | 291° |
| 2026-04-21 18:54 | 9.36020 | -79.86501 | 29 ft | 5 kts | 268° |
| 2026-04-21 18:55 | 9.36014 | -79.86543 | 29 ft | 13 kts | 261° |
| 2026-04-21 18:55 | 9.35926 | -79.86569 | 29 ft | 19 kts | 182° |
| 2026-04-21 18:55 | 9.35712 | -79.86576 | 30 ft | 41 kts | 181° |
| 2026-04-21 18:55 | 9.35414 | -79.86587 | 30 ft | 21 kts | 188° |
| 2026-04-21 18:56 | 9.35373 | -79.86642 | 30 ft | 5 kts | 272° |
| 2026-04-21 18:56 | 9.35378 | -79.86703 | 31 ft | 15 kts | 262° |
| 2026-04-21 18:56 | 9.35265 | -79.86753 | 31 ft | 31 kts | 183° |
| 2026-04-21 18:56 | 9.35003 | -79.86762 | 31 ft | 29 kts | 182° |
| 2026-04-21 18:57 | 9.34842 | -79.86756 | 30 ft | 16 kts | 259° |
| 2026-04-21 18:57 | 9.34878 | -79.86774 | 31 ft | 10 kts | 11° |
| 2026-04-21 18:57 | 9.34991 | -79.86763 | 31 ft | 23 kts | 1° |
| 2026-04-21 18:57 | 9.35265 | -79.86756 | 31 ft | 59 kts | 1° |
| 2026-04-21 18:58 | 9.35716 | -79.86735 | 160 ft | 67 kts | 356° |
| 2026-04-21 18:58 | 9.36208 | -79.86732 | 334 ft | 68 kts | 2° |
| 2026-04-21 18:58 | 9.36653 | -79.86708 | 508 ft | 67 kts | 1° |
| 2026-04-21 18:58 | 9.37152 | -79.86613 | 588 ft | 71 kts | 3° |
| 2026-04-21 18:59 | 9.37664 | -79.86536 | 723 ft | 78 kts | 358° |
| 2026-04-21 18:59 | 9.38133 | -79.86535 | 978 ft | 78 kts | 331° |
| 2026-04-21 18:59 | 9.38202 | -79.86592 | 1042 ft | 76 kts | 316° |
| 2026-04-21 18:59 | 9.38265 | -79.86704 | 1073 ft | 83 kts | 295° |
| 2026-04-21 19:00 | 9.38278 | -79.86755 | 1069 ft | 86 kts | 289° |
| 2026-04-21 19:00 | 9.38239 | -79.87469 | 937 ft | 107 kts | 273° |
| 2026-04-21 19:00 | 9.38235 | -79.87520 | 943 ft | 106 kts | 273° |
| 2026-04-21 19:00 | 9.38234 | -79.87522 | 944 ft | 106 kts | 273° |
| 2026-04-21 19:01 | 9.38065 | -79.88358 | 1080 ft | 107 kts | 246° |
| 2026-04-21 19:01 | 9.37715 | -79.88595 | 1244 ft | 110 kts | 195° |
| 2026-04-21 19:02 | 9.36902 | -79.88601 | 1306 ft | 125 kts | 181° |
| 2026-04-21 19:02 | 9.35950 | -79.88619 | 1096 ft | 144 kts | 181° |
| 2026-04-21 19:02 | 9.35092 | -79.88600 | 1092 ft | 138 kts | 181° |
| 2026-04-21 19:02 | 9.34958 | -79.88598 | 1044 ft | 142 kts | 181° |
| 2026-04-21 19:03 | 9.33967 | -79.88585 | 799 ft | 137 kts | 188° |
| 2026-04-21 19:03 | 9.33761 | -79.88590 | 787 ft | 134 kts | 186° |
| 2026-04-21 19:03 | 9.32935 | -79.88642 | 590 ft | 130 kts | 189° |
| 2026-04-21 19:04 | 9.32562 | -79.88605 | 550 ft | 127 kts | 158° |
| 2026-04-21 19:04 | 9.32200 | -79.87996 | 623 ft | 95 kts | 86° |
| 2026-04-21 19:04 | 9.32142 | -79.87304 | 508 ft | 96 kts | 89° |
| 2026-04-21 19:04 | 9.32284 | -79.86741 | 422 ft | 85 kts | 18° |
| 2026-04-21 19:05 | 9.32861 | -79.86806 | 438 ft | 82 kts | 350° |
| 2026-04-21 19:05 | 9.33392 | -79.86812 | 462 ft | 73 kts | 358° |
| 2026-04-21 19:05 | 9.33938 | -79.86807 | 437 ft | 77 kts | 357° |
| 2026-04-21 19:05 | 9.34467 | -79.86779 | 268 ft | 72 kts | 358° |
| 2026-04-21 19:06 | 9.34952 | -79.86762 | 42 ft | 58 kts | 2° |
| 2026-04-21 19:06 | 9.35257 | -79.86755 | 31 ft | 33 kts | 359° |
| 2026-04-21 19:06 | 9.35372 | -79.86694 | 31 ft | 15 kts | 100° |
| 2026-04-21 19:06 | 9.35370 | -79.86617 | 30 ft | 8 kts | 112° |
| 2026-04-21 19:07 | 9.35368 | -79.86581 | 30 ft | 1 kts | 323° |